Time;durP1;ratioP1;P1;durP2;ratioP2;P2;SDS_P1;SDS_P2;PMS_P1;PMS_P2;Temp;Humidity;BMP_temperature;BMP_pressure;BME280_temperature;BME280_humidity;BME280_pressure;Samples;Min_cycle;Max_cycle;Signal;HPM_P1;HPM_P2
2022/01/04 00:01:22;;;;;;;2.00;0.87;;;;;;;11.37;88.87;97157.19;4861086;29;20656;-83
2022/01/04 00:03:50;;;;;;;2.17;1.20;;;;;;;11.38;89.65;97151.03;4862733;29;20642;-82
2022/01/04 00:06:18;;;;;;;4.20;1.93;;;;;;;11.37;88.45;97149.34;4856896;29;21192;-82
2022/01/04 00:08:48;;;;;;;2.70;0.97;;;;;;;11.37;88.57;97154.59;4848832;29;21037;-82
2022/01/04 00:11:18;;;;;;;2.73;1.40;;;;;;;11.37;90.86;97143.31;4847334;29;21072;-83
2022/01/04 00:13:46;;;;;;;2.40;1.17;;;;;;;11.37;90.89;97148.53;4856023;29;20645;-83
2022/01/04 00:16:14;;;;;;;2.37;1.00;;;;;;;11.36;89.54;97137.25;4858427;29;20633;-83
2022/01/04 00:18:46;;;;;;;3.13;1.20;;;;;;;11.33;89.35;97137.53;4859305;29;20637;-82
2022/01/04 00:21:14;;;;;;;2.30;1.13;;;;;;;11.33;91.14;97129.69;4857174;29;20644;-82
2022/01/04 00:23:43;;;;;;;2.63;1.33;;;;;;;11.33;90.05;97128.88;4858247;29;20627;-83
2022/01/04 00:26:12;;;;;;;2.00;1.07;;;;;;;11.35;90.61;97122.56;4836411;29;21209;-83
2022/01/04 00:28:41;;;;;;;2.40;1.20;;;;;;;11.36;89.72;97115.56;4854366;29;20660;-83
2022/01/04 00:31:09;;;;;;;3.67;1.20;;;;;;;11.31;90.95;97115.94;4856383;29;20624;-83
2022/01/04 00:33:37;;;;;;;1.73;1.00;;;;;;;11.35;90.79;97109.53;4855807;29;20649;-83
2022/01/04 00:36:06;;;;;;;3.00;1.10;;;;;;;11.31;90.45;97107.31;4858025;29;20643;-82
2022/01/04 00:38:34;;;;;;;5.80;1.30;;;;;;;11.28;92.64;97097.94;4855115;29;20655;-82
2022/01/04 00:41:03;;;;;;;2.80;1.00;;;;;;;11.30;91.53;97101.25;4859310;29;20645;-83
2022/01/04 00:43:32;;;;;;;2.33;1.07;;;;;;;11.30;91.49;97092.59;4860608;29;20625;-83
2022/01/04 00:46:00;;;;;;;1.97;1.03;;;;;;;11.33;91.99;97087.91;4855619;29;20635;-83
2022/01/04 00:51:16;;;;;;;2.13;1.13;;;;;;;11.35;90.77;97074.75;4863519;29;20638;-83
2022/01/04 00:53:44;;;;;;;2.90;1.27;;;;;;;11.32;92.88;97065.41;4851184;29;21016;-82
2022/01/04 00:56:12;;;;;;;2.80;1.20;;;;;;;11.31;92.68;97065.53;4854856;29;20671;-82
2022/01/04 00:58:42;;;;;;;2.40;1.00;;;;;;;11.35;91.52;97061.69;4853296;29;20618;-83
2022/01/04 01:01:10;;;;;;;1.50;1.03;;;;;;;11.35;90.85;97059.91;4850718;29;20649;-83
2022/01/04 01:03:38;;;;;;;2.70;1.13;;;;;;;11.36;91.39;97063.34;4857268;29;20658;-83
2022/01/04 01:06:07;;;;;;;2.23;1.20;;;;;;;11.36;91.49;97055.50;4858599;29;20670;-82
2022/01/04 01:08:35;;;;;;;2.67;1.20;;;;;;;11.40;91.44;97049.06;4851388;29;20626;-83
2022/01/04 01:11:05;;;;;;;2.83;1.30;;;;;;;11.37;92.31;97050.16;4857704;29;21480;-83
2022/01/04 01:13:33;;;;;;;2.00;1.37;;;;;;;11.39;93.01;97045.63;4850553;29;20644;-82
2022/01/04 01:16:02;;;;;;;2.03;1.10;;;;;;;11.39;92.33;97027.34;4857608;29;20626;-82
2022/01/04 01:18:30;;;;;;;3.47;1.50;;;;;;;11.41;92.56;97028.06;4855334;29;20671;-83
2022/01/04 01:20:59;;;;;;;1.70;1.00;;;;;;;11.41;92.01;97025.44;4870645;29;20639;-82
2022/01/04 01:23:28;;;;;;;1.90;1.20;;;;;;;11.40;92.88;97022.97;4856527;29;20642;-82
2022/01/04 01:25:56;;;;;;;4.07;1.57;;;;;;;11.39;91.86;97027.34;4855550;29;20995;-82
2022/01/04 01:28:25;;;;;;;1.30;0.80;;;;;;;11.37;92.84;97018.03;4847050;29;20706;-83
2022/01/04 01:30:54;;;;;;;3.20;1.20;;;;;;;11.36;91.37;97013.75;4857195;29;20668;-82
2022/01/04 01:33:24;;;;;;;2.60;1.10;;;;;;;11.41;92.99;97011.53;4863404;29;20668;-83
2022/01/04 01:35:52;;;;;;;3.60;1.23;;;;;;;11.41;92.35;97009.78;4853703;29;20638;-83
2022/01/04 01:38:21;;;;;;;2.37;1.10;;;;;;;11.41;91.82;96993.28;4854579;29;20669;-83
2022/01/04 01:40:49;;;;;;;1.80;1.07;;;;;;;11.38;92.93;96983.09;4848343;29;21175;-83
2022/01/04 01:43:17;;;;;;;2.80;1.23;;;;;;;11.38;91.24;96988.31;4852834;29;20692;-83
2022/01/04 01:45:46;;;;;;;2.30;1.33;;;;;;;11.33;93.15;96983.50;4850783;29;20666;-83
2022/01/04 01:48:14;;;;;;;1.77;1.10;;;;;;;11.39;92.56;96969.09;4848612;29;20653;-83
2022/01/04 01:50:43;;;;;;;2.20;1.40;;;;;;;11.40;93.35;96963.75;4851378;29;20653;-82
2022/01/04 01:53:12;;;;;;;1.77;1.20;;;;;;;11.41;91.52;96960.19;4846347;29;20631;-83
2022/01/04 01:55:40;;;;;;;2.47;1.13;;;;;;;11.42;91.37;96953.16;4850661;29;21028;-83
2022/01/04 01:58:08;;;;;;;2.50;1.33;;;;;;;11.41;92.36;96947.13;4856083;29;20621;-83
2022/01/04 02:00:36;;;;;;;2.73;1.20;;;;;;;11.42;91.22;96935.69;4855669;29;20624;-83
2022/01/04 02:03:04;;;;;;;2.17;1.30;;;;;;;11.42;93.00;96929.66;4848025;29;20632;-83
2022/01/04 02:05:33;;;;;;;2.17;1.20;;;;;;;11.41;91.86;96928.00;4857747;29;20653;-83
2022/01/04 02:08:04;;;;;;;1.40;1.00;;;;;;;11.40;93.55;96923.78;4854708;29;20633;-83
2022/01/04 02:10:33;;;;;;;2.10;1.20;;;;;;;11.38;93.49;96925.69;4857651;29;20674;-83
2022/01/04 02:13:01;;;;;;;1.70;1.00;;;;;;;11.40;92.72;96921.16;4871762;29;21187;-83
2022/01/04 02:15:33;;;;;;;2.97;1.30;;;;;;;11.38;94.06;96920.44;4854549;29;20622;-83
2022/01/04 02:18:01;;;;;;;4.10;1.23;;;;;;;11.37;91.81;96917.03;4848900;29;21244;-82
2022/01/04 02:20:30;;;;;;;2.20;1.30;;;;;;;11.38;92.68;96912.63;4833936;29;20648;-83
2022/01/04 02:22:59;;;;;;;2.20;1.57;;;;;;;11.41;93.31;96902.75;4831775;29;21274;-83
2022/01/04 02:25:27;;;;;;;2.87;1.20;;;;;;;11.40;92.88;96895.06;4864450;29;21174;-83
2022/01/04 02:27:55;;;;;;;2.70;1.33;;;;;;;11.39;93.62;96880.34;4860622;29;21196;-83
2022/01/04 02:30:23;;;;;;;2.33;1.50;;;;;;;11.41;93.45;96879.25;4848452;29;21261;-82
2022/01/04 02:32:51;;;;;;;1.90;1.20;;;;;;;11.44;93.00;96880.75;4852033;29;21064;-83
2022/01/04 02:35:23;;;;;;;3.00;1.40;;;;;;;11.44;92.45;96878.13;4848848;29;20737;-82
2022/01/04 02:37:55;;;;;;;2.37;1.40;;;;;;;11.43;92.23;96866.88;4853033;29;20649;-83
2022/01/04 02:40:23;;;;;;;2.67;1.40;;;;;;;11.45;92.34;96857.09;4834092;29;21183;-82
2022/01/04 02:42:52;;;;;;;3.40;1.40;;;;;;;11.47;91.90;96857.84;4844970;29;20650;-83
2022/01/04 02:45:20;;;;;;;3.30;1.30;;;;;;;11.48;91.48;96849.03;4853853;29;21154;-83
2022/01/04 02:47:48;;;;;;;2.07;1.63;;;;;;;11.51;92.28;96847.94;4855228;29;20703;-83
2022/01/04 02:50:17;;;;;;;2.60;1.33;;;;;;;11.52;93.17;96839.97;4857060;29;20658;-82
2022/01/04 02:52:45;;;;;;;3.33;1.80;;;;;;;11.56;92.31;96827.44;4856803;29;20645;-83
2022/01/04 02:55:16;;;;;;;3.07;1.80;;;;;;;11.57;91.28;96814.25;4852497;29;20649;-83
2022/01/04 02:57:44;;;;;;;3.00;1.77;;;;;;;11.64;91.14;96801.47;4832660;29;20618;-82
2022/01/04 03:00:14;;;;;;;2.80;1.77;;;;;;;11.66;92.27;96799.53;4845408;29;20639;-83
2022/01/04 03:02:43;;;;;;;2.23;1.70;;;;;;;11.68;91.07;96790.59;4853061;29;20662;-83
2022/01/04 03:05:11;;;;;;;3.50;2.00;;;;;;;11.65;92.28;96790.88;4856047;29;20717;-83
2022/01/04 03:07:40;;;;;;;2.53;1.87;;;;;;;11.63;90.39;96786.75;4857475;29;20664;-83
2022/01/04 03:10:08;;;;;;;2.30;1.90;;;;;;;11.64;90.68;96783.19;4853171;29;20651;-83
2022/01/04 03:12:42;;;;;;;2.30;1.87;;;;;;;11.64;91.95;96775.34;4852157;29;21022;-83
2022/01/04 03:15:12;;;;;;;3.37;1.97;;;;;;;11.67;90.01;96772.44;4854772;29;20650;-83
2022/01/04 03:17:40;;;;;;;3.20;1.90;;;;;;;11.67;91.30;96775.88;4850949;29;20688;-83
2022/01/04 03:20:09;;;;;;;3.57;2.00;;;;;;;11.64;90.50;96776.16;4855654;29;21193;-83
2022/01/04 03:22:37;;;;;;;2.80;1.80;;;;;;;11.64;90.45;96768.31;4851764;29;21157;-83
2022/01/04 03:25:06;;;;;;;3.07;1.90;;;;;;;11.66;90.92;96762.97;4849860;29;20646;-82
2022/01/04 03:27:34;;;;;;;3.07;2.20;;;;;;;11.64;93.30;96767.50;4851631;29;20743;-83
2022/01/04 03:30:05;;;;;;;3.07;2.00;;;;;;;11.65;93.22;96750.84;4849484;29;20642;-83
2022/01/04 03:32:33;;;;;;;2.43;1.73;;;;;;;11.63;92.28;96748.38;4859750;29;20640;-82
2022/01/04 03:35:01;;;;;;;4.63;2.30;;;;;;;11.65;93.17;96745.63;4859280;29;21187;-82
2022/01/04 03:37:29;;;;;;;2.90;1.60;;;;;;;11.64;91.87;96749.22;4857849;29;20673;-82
2022/01/04 03:39:57;;;;;;;2.60;2.10;;;;;;;11.60;92.02;96740.03;4853515;29;20985;-83
2022/01/04 03:42:25;;;;;;;3.10;1.83;;;;;;;11.58;92.79;96740.16;4854799;29;21208;-83
2022/01/04 03:44:53;;;;;;;2.40;1.90;;;;;;;11.54;92.45;96730.97;4849406;29;20637;-82
2022/01/04 03:47:23;;;;;;;2.53;1.83;;;;;;;11.55;93.96;96729.19;4849400;29;20725;-83
2022/01/04 03:49:51;;;;;;;2.70;1.73;;;;;;;11.53;92.79;96721.50;4853574;29;20745;-83
2022/01/04 03:52:19;;;;;;;2.00;1.60;;;;;;;11.50;93.97;96716.56;4845658;29;20673;-83
2022/01/04 03:54:47;;;;;;;3.07;1.70;;;;;;;11.47;92.37;96710.81;4853937;29;20679;-83
2022/01/04 03:57:15;;;;;;;2.30;1.70;;;;;;;11.49;92.53;96701.06;4855278;29;20640;-83
2022/01/04 03:59:43;;;;;;;3.00;1.70;;;;;;;11.47;94.48;96697.75;4861116;29;20663;-83
2022/01/04 04:02:11;;;;;;;2.70;1.60;;;;;;;11.47;93.39;96689.91;4835574;29;20649;-83
2022/01/04 04:04:41;;;;;;;2.30;1.90;;;;;;;11.51;93.73;96680.84;4859026;29;20634;-83
2022/01/04 04:07:10;;;;;;;2.30;1.60;;;;;;;11.48;92.79;96681.94;4858452;29;20673;-83
2022/01/04 04:09:39;;;;;;;3.00;1.73;;;;;;;11.49;94.55;96673.16;4851905;29;20634;-83
2022/01/04 04:12:08;;;;;;;2.73;1.80;;;;;;;11.48;94.21;96675.91;4852883;29;20670;-83
2022/01/04 04:14:36;;;;;;;2.23;1.70;;;;;;;11.47;93.98;96676.88;4856683;29;21057;-83
2022/01/04 04:17:16;;;;;;;3.10;1.90;;;;;;;11.46;94.44;96667.38;4842009;29;20636;-83
2022/01/04 04:19:46;;;;;;;1.70;1.40;;;;;;;11.45;94.57;96665.72;4858385;29;20638;-82
2022/01/04 04:22:14;;;;;;;3.63;2.13;;;;;;;11.42;96.57;96663.41;4845868;29;20695;-83
2022/01/04 04:24:44;;;;;;;2.10;1.47;;;;;;;11.45;94.93;96657.88;4856145;29;20625;-83
2022/01/04 04:27:12;;;;;;;8.10;1.97;;;;;;;11.46;95.26;96656.94;4853128;29;20642;-83
2022/01/04 04:29:40;;;;;;;3.70;2.10;;;;;;;11.46;95.15;96646.50;4852712;29;20656;-83
2022/01/04 04:32:10;;;;;;;3.63;1.80;;;;;;;11.44;95.65;96640.56;4850034;29;20687;-83
2022/01/04 04:34:38;;;;;;;2.30;1.73;;;;;;;11.40;97.43;96631.41;4849693;29;20646;-83
2022/01/04 04:37:08;;;;;;;2.50;1.90;;;;;;;11.41;96.79;96633.03;4849661;29;20997;-83
2022/01/04 04:39:36;;;;;;;2.03;1.67;;;;;;;11.41;97.00;96631.25;4861812;29;20647;-83
2022/01/04 04:42:05;;;;;;;2.37;1.77;;;;;;;11.41;95.48;96628.66;4845493;29;20666;-83
2022/01/04 04:44:33;;;;;;;3.40;1.73;;;;;;;11.40;95.63;96626.19;4852864;29;20639;-83
2022/01/04 04:47:01;;;;;;;3.10;1.90;;;;;;;11.41;96.33;96625.19;4851596;29;20641;-83
2022/01/04 04:49:29;;;;;;;3.10;1.70;;;;;;;11.38;96.23;96612.44;4853899;29;20636;-83
2022/01/04 04:51:59;;;;;;;2.90;1.90;;;;;;;11.34;95.74;96614.53;4855185;29;20673;-82
2022/01/04 04:54:29;;;;;;;2.80;1.70;;;;;;;11.33;96.77;96610.25;4868311;29;20711;-83
2022/01/04 04:56:57;;;;;;;3.30;2.20;;;;;;;11.33;97.11;96606.84;4859412;29;21274;-83
2022/01/04 04:59:26;;;;;;;2.90;1.57;;;;;;;11.32;97.61;96607.81;4859024;29;20636;-83
2022/01/04 05:01:54;;;;;;;2.57;1.60;;;;;;;11.34;98.39;96605.88;4856207;29;20626;-83
2022/01/04 05:04:22;;;;;;;3.00;1.63;;;;;;;11.37;96.82;96598.56;4860239;29;20696;-83
2022/01/04 05:06:50;;;;;;;2.60;1.80;;;;;;;11.35;96.39;96597.06;4856725;29;20675;-83
2022/01/04 05:09:18;;;;;;;2.10;1.50;;;;;;;11.35;97.45;96597.91;4867627;29;20646;-83
2022/01/04 05:11:48;;;;;;;2.20;1.40;;;;;;;11.36;96.76;96578.66;4851285;29;20662;-83
2022/01/04 05:14:16;;;;;;;2.90;1.40;;;;;;;11.36;98.39;96583.88;4856284;29;21191;-83
2022/01/04 05:16:44;;;;;;;2.07;1.57;;;;;;;11.37;97.22;96576.88;4855138;29;20643;-83
2022/01/04 05:19:13;;;;;;;2.77;1.40;;;;;;;11.35;97.40;96578.78;4850363;29;20647;-83
2022/01/04 05:21:41;;;;;;;1.70;1.50;;;;;;;11.33;98.98;96575.53;4853976;29;20744;-83
2022/01/04 05:24:09;;;;;;;2.70;1.60;;;;;;;11.37;98.77;96574.28;4853976;29;20675;-83
2022/01/04 05:26:37;;;;;;;2.47;1.60;;;;;;;11.38;98.87;96570.69;4850894;29;20647;-83
2022/01/04 05:29:07;;;;;;;4.20;1.53;;;;;;;11.37;97.99;96561.22;4850607;29;20646;-83
2022/01/04 05:31:35;;;;;;;2.70;1.80;;;;;;;11.36;98.48;96562.19;4838835;29;20680;-83
2022/01/04 05:34:03;;;;;;;2.37;1.70;;;;;;;11.38;99.64;96562.84;4855665;29;20653;-83
2022/01/04 05:36:31;;;;;;;2.50;1.40;;;;;;;11.36;99.94;96557.78;4854609;29;20641;-83
2022/01/04 05:39:00;;;;;;;2.00;1.60;;;;;;;11.34;99.72;96548.47;4858492;29;20623;-83
2022/01/04 05:41:28;;;;;;;2.87;1.70;;;;;;;11.34;99.82;96540.63;4862655;29;21225;-83
2022/01/04 05:43:56;;;;;;;3.60;1.77;;;;;;;11.34;100.00;96538.84;4857098;29;20628;-83
2022/01/04 05:46:26;;;;;;;2.40;1.40;;;;;;;11.32;99.90;96526.88;4848331;29;20643;-83
2022/01/04 05:48:54;;;;;;;2.80;2.17;;;;;;;11.32;100.00;96522.50;4850455;29;20647;-83
2022/01/04 05:51:22;;;;;;;3.63;1.50;;;;;;;11.34;99.75;96519.75;4857214;29;20659;-83
2022/01/04 05:53:53;;;;;;;2.87;1.60;;;;;;;11.33;99.35;96518.91;4858632;29;20725;-83
2022/01/04 05:56:21;;;;;;;3.37;1.70;;;;;;;11.38;100.00;96508.03;4849717;29;20627;-83
2022/01/04 05:58:49;;;;;;;2.10;1.50;;;;;;;11.37;100.00;96501.19;4848546;29;20641;-83
2022/01/04 06:01:17;;;;;;;3.70;1.50;;;;;;;11.34;100.00;96498.88;4856989;29;20652;-83
2022/01/04 06:03:47;;;;;;;2.00;1.37;;;;;;;11.35;100.00;96492.66;4854505;29;20642;-83
2022/01/04 06:06:15;;;;;;;2.20;1.43;;;;;;;11.35;100.00;96498.72;4851317;29;20665;-83
2022/01/04 06:08:43;;;;;;;2.50;1.80;;;;;;;11.36;100.00;96499.53;4853528;29;21212;-83
2022/01/04 06:11:29;;;;;;;2.60;1.70;;;;;;;11.37;100.00;96485.53;4853774;29;20659;-83
2022/01/04 06:16:43;;;;;;;2.30;1.60;;;;;;;11.33;100.00;96478.97;4836762;29;20715;-83
2022/01/04 06:19:13;;;;;;;2.07;1.50;;;;;;;11.27;100.00;96482.16;4854128;29;20649;-83
2022/01/04 06:21:41;;;;;;;2.67;1.80;;;;;;;11.27;100.00;96471.72;4852637;29;20659;-83
2022/01/04 06:24:10;;;;;;;2.17;1.40;;;;;;;11.27;100.00;96469.94;4856381;29;20642;-83
2022/01/04 06:26:38;;;;;;;3.07;2.00;;;;;;;11.28;100.00;96476.78;4851344;29;20642;-83
2022/01/04 06:29:06;;;;;;;2.50;1.80;;;;;;;11.30;100.00;96463.59;4858814;29;20633;-83
2022/01/04 06:31:34;;;;;;;3.50;2.00;;;;;;;11.30;100.00;96453.16;4857457;29;20658;-83
2022/01/04 06:34:02;;;;;;;2.30;1.60;;;;;;;11.31;100.00;96450.41;4846714;29;20649;-84
2022/01/04 06:36:32;;;;;;;2.57;1.47;;;;;;;11.34;100.00;96441.47;4853206;29;21194;-83
2022/01/04 06:39:00;;;;;;;2.07;1.43;;;;;;;11.43;100.00;96445.78;4849731;29;20626;-83
2022/01/04 06:41:28;;;;;;;1.73;1.23;;;;;;;11.47;100.00;96426.25;4861241;29;20736;-83
2022/01/04 06:43:56;;;;;;;2.30;1.80;;;;;;;11.50;100.00;96428.56;4849566;29;20632;-83
2022/01/04 06:46:25;;;;;;;2.67;1.70;;;;;;;11.55;100.00;96426.34;4843749;29;20655;-83
2022/01/04 06:48:53;;;;;;;2.37;1.60;;;;;;;11.57;100.00;96422.59;4854216;29;21194;-83
2022/01/04 06:51:21;;;;;;;2.37;1.43;;;;;;;11.56;100.00;96425.34;4854177;29;20642;-83
2022/01/04 06:53:51;;;;;;;2.23;1.53;;;;;;;11.55;100.00;96415.91;4856696;29;20672;-82
2022/01/04 06:56:19;;;;;;;2.53;1.57;;;;;;;11.54;100.00;96415.06;4855209;29;20709;-83
2022/01/04 06:58:47;;;;;;;1.60;1.30;;;;;;;11.55;100.00;96418.50;4852027;29;20630;-83
2022/01/04 07:01:15;;;;;;;2.87;1.47;;;;;;;11.54;100.00;96403.81;4852535;29;20634;-83
2022/01/04 07:03:44;;;;;;;3.47;2.00;;;;;;;11.50;100.00;96412.91;4851532;29;20633;-83
2022/01/04 07:06:12;;;;;;;2.73;1.70;;;;;;;11.52;100.00;96411.78;4852096;29;20703;-83
2022/01/04 07:08:40;;;;;;;2.60;1.63;;;;;;;11.52;100.00;96406.56;4856331;29;20679;-83
2022/01/04 07:11:09;;;;;;;2.33;1.40;;;;;;;11.57;100.00;96408.72;4845751;29;21020;-83
2022/01/04 07:13:37;;;;;;;3.60;1.90;;;;;;;11.58;100.00;96407.75;4844080;29;20663;-83
2022/01/04 07:16:06;;;;;;;2.17;1.50;;;;;;;11.56;100.00;96402.69;4851578;29;20713;-83
2022/01/04 07:18:35;;;;;;;2.13;1.40;;;;;;;11.58;100.00;96399.94;4859235;29;20718;-83
2022/01/04 07:21:03;;;;;;;2.70;1.73;;;;;;;11.60;100.00;96393.56;4849516;29;20731;-83
2022/01/04 07:23:33;;;;;;;2.83;1.70;;;;;;;11.59;100.00;96397.16;4849503;29;20638;-83
2022/01/04 07:26:01;;;;;;;4.03;1.40;;;;;;;11.60;100.00;96388.34;4845393;29;21179;-83
2022/01/04 07:28:31;;;;;;;3.40;1.40;;;;;;;11.64;100.00;96388.88;4861532;29;20673;-83
2022/01/04 07:31:07;;;;;;;2.33;1.40;;;;;;;11.66;100.00;96384.31;4845665;29;20609;-83
2022/01/04 07:33:35;;;;;;;1.80;1.33;;;;;;;11.68;100.00;96379.75;4849736;29;21333;-83
2022/01/04 07:36:03;;;;;;;2.60;1.20;;;;;;;11.70;100.00;96381.25;4852314;29;20636;-83
2022/01/04 07:38:31;;;;;;;2.10;1.23;;;;;;;11.72;100.00;96381.09;4849040;29;21002;-83
2022/01/04 07:41:00;;;;;;;3.07;1.40;;;;;;;11.77;100.00;96375.25;4861713;29;20630;-83
2022/01/04 07:43:35;;;;;;;2.97;1.37;;;;;;;11.80;100.00;96374.09;4856092;29;20652;-83
2022/01/04 07:46:03;;;;;;;2.13;1.57;;;;;;;11.77;100.00;96364.81;4855570;29;21078;-83
2022/01/04 07:48:32;;;;;;;3.60;1.70;;;;;;;11.78;100.00;96361.19;4855550;29;20700;-83
2022/01/04 07:51:00;;;;;;;1.77;1.23;;;;;;;11.82;100.00;96353.91;4834990;29;20643;-82
2022/01/04 07:53:31;;;;;;;2.37;1.17;;;;;;;11.82;100.00;96354.69;4853052;29;20725;-83
2022/01/04 07:55:59;;;;;;;1.90;1.30;;;;;;;11.86;100.00;96350.81;4856094;29;20700;-83
2022/01/04 07:58:29;;;;;;;2.07;1.23;;;;;;;11.89;100.00;96347.91;4857662;29;20644;-82
2022/01/04 08:00:58;;;;;;;2.50;1.40;;;;;;;11.90;100.00;96338.25;4853925;29;20639;-82
2022/01/04 08:03:27;;;;;;;2.30;1.70;;;;;;;11.94;100.00;96331.75;4864081;29;20633;-82
2022/01/04 08:05:56;;;;;;;4.77;1.37;;;;;;;11.96;100.00;96335.84;4864492;29;20661;-83
2022/01/04 08:08:24;;;;;;;2.80;1.43;;;;;;;11.97;100.00;96337.47;4848711;29;20634;-83
2022/01/04 08:10:52;;;;;;;2.10;1.20;;;;;;;11.99;100.00;96327.69;4862912;29;20731;-83
2022/01/04 08:13:20;;;;;;;2.97;1.27;;;;;;;12.01;100.00;96330.97;4852529;29;20683;-83
2022/01/04 08:15:49;;;;;;;2.73;1.60;;;;;;;12.06;100.00;96328.72;4850467;29;21171;-83
2022/01/04 08:18:18;;;;;;;2.97;1.50;;;;;;;12.09;100.00;96323.16;4855544;29;20727;-82
2022/01/04 08:20:47;;;;;;;1.97;1.33;;;;;;;12.12;100.00;96320.25;4853637;29;21230;-83
2022/01/04 08:23:15;;;;;;;1.87;1.20;;;;;;;12.13;100.00;96329.69;4855327;29;21195;-83
2022/01/04 08:25:43;;;;;;;4.33;1.77;;;;;;;12.16;100.00;96324.16;4857375;29;20625;-83
2022/01/04 08:28:11;;;;;;;2.57;1.40;;;;;;;12.17;100.00;96330.22;4856692;29;20632;-82
2022/01/04 08:30:40;;;;;;;2.47;1.67;;;;;;;12.17;100.00;96325.81;4856112;29;20649;-83
2022/01/04 08:33:10;;;;;;;2.40;1.50;;;;;;;12.16;100.00;96324.16;4857836;29;20657;-83
2022/01/04 08:35:39;;;;;;;2.20;1.60;;;;;;;12.16;100.00;96305.88;4859069;29;21188;-83
2022/01/04 08:38:08;;;;;;;6.43;1.97;;;;;;;12.19;100.00;96310.78;4860114;29;20643;-83
2022/01/04 08:40:36;;;;;;;2.47;1.53;;;;;;;12.21;100.00;96308.84;4856503;29;20638;-83
2022/01/04 08:43:05;;;;;;;2.80;1.77;;;;;;;12.25;100.00;96312.75;4872095;29;20714;-83
2022/01/04 08:45:34;;;;;;;2.23;1.67;;;;;;;12.28;100.00;96309.81;4857874;29;20791;-83
2022/01/04 08:48:04;;;;;;;2.50;1.80;;;;;;;12.30;100.00;96306.09;4858967;29;20647;-83
2022/01/04 08:50:32;;;;;;;2.10;1.67;;;;;;;12.33;100.00;96292.69;4859748;29;20727;-83
2022/01/04 08:53:01;;;;;;;2.57;1.73;;;;;;;12.35;100.00;96295.97;4854543;29;20637;-83
2022/01/04 08:55:29;;;;;;;2.57;1.40;;;;;;;12.37;100.00;96298.41;4846445;29;20653;-83
2022/01/04 08:57:57;;;;;;;2.80;1.77;;;;;;;12.34;100.00;96294.34;4856284;29;20645;-83
2022/01/04 09:00:25;;;;;;;6.07;2.10;;;;;;;12.32;100.00;96285.03;4853771;29;20622;-83
2022/01/04 09:02:53;;;;;;;2.60;2.20;;;;;;;12.32;100.00;96280.59;4854327;29;20636;-83
2022/01/04 09:05:22;;;;;;;3.87;1.83;;;;;;;12.31;100.00;96276.38;4850826;29;20697;-83
2022/01/04 09:07:50;;;;;;;4.30;1.83;;;;;;;12.30;100.00;96271.31;4836552;29;20726;-83
2022/01/04 09:10:20;;;;;;;2.10;1.50;;;;;;;12.28;100.00;96279.31;4863156;29;20680;-82
2022/01/04 09:12:56;;;;;;;2.33;1.53;;;;;;;12.23;100.00;96278.94;4855509;29;21047;-83
2022/01/04 09:15:34;;;;;;;2.73;1.40;;;;;;;12.23;100.00;96272.91;4846654;29;20767;-83
2022/01/04 09:21:12;;;;;;;2.37;1.70;;;;;;;12.27;100.00;96267.19;4848700;29;20657;-83
2022/01/04 09:23:40;;;;;;;2.70;1.73;;;;;;;12.30;100.00;96268.69;4858399;29;20655;-83
2022/01/04 09:26:10;;;;;;;2.67;2.10;;;;;;;12.36;100.00;96273.28;4857048;29;20620;-83
2022/01/04 09:28:39;;;;;;;3.63;2.00;;;;;;;12.35;100.00;96264.59;4846004;29;20652;-83
2022/01/04 09:31:07;;;;;;;3.07;2.20;;;;;;;12.33;100.00;96270.97;4848250;29;21181;-83
2022/01/04 09:33:36;;;;;;;3.60;2.40;;;;;;;12.32;100.00;96259.69;4856506;29;21038;-83
2022/01/04 09:36:25;;;;;;;3.10;1.50;;;;;;;12.33;100.00;96250.88;4855626;29;20699;-83
2022/01/04 09:38:53;;;;;;;7.03;1.53;;;;;;;12.36;100.00;96247.94;4858924;29;20630;-83
2022/01/04 09:41:22;;;;;;;2.33;1.33;;;;;;;12.38;100.00;96248.59;4840502;29;20645;-83
2022/01/04 09:43:52;;;;;;;1.90;1.10;;;;;;;12.40;100.00;96246.66;4857156;29;20673;-83
2022/01/04 09:46:20;;;;;;;4.33;1.47;;;;;;;12.40;100.00;96230.97;4855768;29;21045;-83
2022/01/04 09:48:49;;;;;;;3.17;1.37;;;;;;;12.42;100.00;96236.03;4852282;29;20650;-83
2022/01/04 09:51:17;;;;;;;2.77;1.50;;;;;;;12.45;100.00;96230.47;4856430;29;20626;-83
2022/01/04 09:53:45;;;;;;;2.37;1.50;;;;;;;12.50;100.00;96230.81;4853690;29;21290;-83
2022/01/04 09:56:14;;;;;;;3.20;1.83;;;;;;;12.48;100.00;96232.75;4839379;29;21189;-83
2022/01/04 09:58:44;;;;;;;3.47;1.43;;;;;;;12.48;100.00;96235.34;4853880;29;20661;-83
2022/01/04 10:01:19;;;;;;;2.10;1.60;;;;;;;12.45;100.00;96230.47;4836004;29;20642;-83
2022/01/04 10:04:07;;;;;;;1.80;1.30;;;;;;;12.49;100.00;96239.63;4852746;29;20631;-83
2022/01/04 10:06:37;;;;;;;3.40;1.60;;;;;;;12.49;100.00;96231.78;4855217;29;20672;-83
2022/01/04 10:09:08;;;;;;;3.07;1.50;;;;;;;12.48;100.00;96230.13;4850558;29;20650;-83
2022/01/04 10:11:39;;;;;;;2.20;1.37;;;;;;;12.46;100.00;96219.88;4830111;29;20977;-83
2022/01/04 10:14:27;;;;;;;2.50;1.30;;;;;;;12.46;100.00;96216.41;4849542;29;21248;-83
2022/01/04 10:16:57;;;;;;;4.07;1.40;;;;;;;12.44;100.00;96218.38;4846490;29;20751;-83
2022/01/04 10:19:29;;;;;;;1.63;1.20;;;;;;;12.46;100.00;96211.19;4858498;29;20653;-83
2022/01/04 10:22:13;;;;;;;1.57;1.10;;;;;;;12.45;100.00;96214.78;4849846;29;20638;-83
2022/01/04 10:24:42;;;;;;;2.80;1.30;;;;;;;12.47;100.00;96218.06;4851753;29;20971;-83
2022/01/04 10:27:26;;;;;;;2.80;1.43;;;;;;;12.48;100.00;96206.59;4848470;29;20645;-83
2022/01/04 10:30:27;;;;;;;2.47;1.37;;;;;;;12.48;100.00;96202.22;4848932;29;20648;-83
2022/01/04 10:32:58;;;;;;;2.90;1.53;;;;;;;12.45;100.00;96204.34;4817434;29;20703;-83
2022/01/04 10:35:30;;;;;;;2.33;1.43;;;;;;;12.39;100.00;96190.09;4846841;29;20715;-83
2022/01/04 10:38:03;;;;;;;4.30;1.43;;;;;;;12.43;100.00;96190.59;4856633;29;20727;-83
2022/01/04 10:40:31;;;;;;;2.63;1.60;;;;;;;12.41;100.00;96193.38;4851328;29;20623;-83
2022/01/04 10:43:08;;;;;;;2.20;1.60;;;;;;;12.40;100.00;96189.13;4856043;29;20759;-83
2022/01/04 10:45:39;;;;;;;2.20;1.40;;;;;;;12.47;100.00;96178.84;4853124;29;20634;-83
2022/01/04 10:48:20;;;;;;;2.17;1.63;;;;;;;12.49;100.00;96180.28;4830420;29;20718;-83
2022/01/04 10:50:50;;;;;;;2.87;1.37;;;;;;;12.53;100.00;96175.56;4856250;29;21214;-83
2022/01/04 10:53:37;;;;;;;2.50;1.40;;;;;;;12.58;100.00;96181.13;4852825;29;20676;-83
2022/01/04 10:56:07;;;;;;;2.30;1.47;;;;;;;12.55;100.00;96179.63;4853079;29;20653;-83
2022/01/04 10:58:37;;;;;;;2.37;1.67;;;;;;;12.57;100.00;96179.47;4848931;29;20634;-83
2022/01/04 11:01:09;;;;;;;3.10;1.40;;;;;;;12.57;100.00;96179.47;4853434;29;20639;-83
2022/01/04 11:03:39;;;;;;;2.97;1.90;;;;;;;12.59;100.00;96178.34;4847386;29;20717;-82
2022/01/04 11:06:11;;;;;;;2.93;1.53;;;;;;;12.65;100.00;96171.66;4850597;29;21247;-83
2022/01/04 11:08:40;;;;;;;2.27;1.57;;;;;;;12.64;100.00;96168.19;4847175;29;20667;-83
2022/01/04 11:11:09;;;;;;;2.73;1.43;;;;;;;12.69;100.00;96168.53;4865739;29;20652;-83
2022/01/04 11:13:37;;;;;;;2.30;1.70;;;;;;;12.68;100.00;96171.31;4843635;29;20736;-83
2022/01/04 11:16:07;;;;;;;4.10;1.30;;;;;;;12.67;100.00;96167.88;4863919;29;20669;-83
2022/01/04 11:18:40;;;;;;;2.10;1.43;;;;;;;12.68;100.00;96166.91;4862633;29;20632;-83
2022/01/04 11:21:12;;;;;;;1.97;1.50;;;;;;;12.66;100.00;96160.19;4853970;29;21455;-83
2022/01/04 11:23:41;;;;;;;2.33;1.47;;;;;;;12.64;100.00;96165.59;4854378;29;20648;-83
2022/01/04 11:26:10;;;;;;;4.53;1.67;;;;;;;12.65;100.00;96163.81;4856541;29;20615;-83
2022/01/04 11:28:41;;;;;;;4.10;2.20;;;;;;;12.63;100.00;96161.34;4853266;29;20750;-83
2022/01/04 11:31:20;;;;;;;2.23;1.50;;;;;;;12.62;100.00;96154.47;4850201;29;20983;-83
2022/01/04 11:33:57;;;;;;;3.33;1.80;;;;;;;12.63;100.00;96156.13;4855947;29;20679;-83
2022/01/04 11:36:27;;;;;;;3.50;2.00;;;;;;;12.65;100.00;96140.28;4853501;29;20669;-83
2022/01/04 11:38:55;;;;;;;2.37;1.30;;;;;;;12.63;100.00;96134.38;4852643;29;20632;-82
2022/01/04 11:41:26;;;;;;;2.47;1.73;;;;;;;12.63;100.00;96139.59;4853533;29;21266;-83
2022/01/04 11:43:54;;;;;;;2.50;1.83;;;;;;;12.61;100.00;96138.94;4853953;29;20652;-83
2022/01/04 11:46:35;;;;;;;2.30;1.73;;;;;;;12.64;100.00;96136.00;4848131;29;20648;-83
2022/01/04 11:49:09;;;;;;;2.83;1.63;;;;;;;12.65;100.00;96133.22;4852605;29;21057;-83